createdAt,value
2019-05-16T00:00:19.321Z,1010.55
2019-05-16T00:01:19.539Z,1010.55
2019-05-16T00:02:18.993Z,1010.59
2019-05-16T00:03:18.991Z,1010.52
2019-05-16T00:04:19.302Z,1010.54
2019-05-16T00:05:18.965Z,1010.49
2019-05-16T00:06:18.944Z,1010.48
2019-05-16T00:07:19.323Z,1010.49
2019-05-16T00:08:18.934Z,1010.47
2019-05-16T00:09:19.637Z,1010.46
2019-05-16T00:10:18.957Z,1010.44
2019-05-16T00:11:18.902Z,1010.43
2019-05-16T00:12:18.894Z,1010.41
2019-05-16T00:13:18.882Z,1010.42
2019-05-16T00:14:18.920Z,1010.42
2019-05-16T00:15:18.853Z,1010.37
2019-05-16T00:16:19.173Z,1010.40
2019-05-16T00:17:19.006Z,1010.37
2019-05-16T00:18:18.831Z,1010.33
2019-05-16T00:19:18.813Z,1010.36
2019-05-16T00:20:19.226Z,1010.33
2019-05-16T00:21:18.800Z,1010.32
2019-05-16T00:22:18.822Z,1010.34
2019-05-16T00:23:18.773Z,1010.26
2019-05-16T00:24:18.794Z,1010.29
2019-05-16T00:25:18.753Z,1010.27
2019-05-16T00:26:19.804Z,1010.27
2019-05-16T00:27:18.751Z,1010.28
2019-05-16T00:28:19.070Z,1010.27
2019-05-16T00:29:18.712Z,1010.25
2019-05-16T00:30:18.702Z,1010.25
2019-05-16T00:31:18.692Z,1010.23
2019-05-16T00:32:19.197Z,1010.24
2019-05-16T00:33:18.680Z,1010.24
2019-05-16T00:34:18.935Z,1010.27
2019-05-16T00:35:18.653Z,1010.24
2019-05-16T00:36:19.053Z,1010.27
2019-05-16T00:37:18.629Z,1010.30
2019-05-16T00:38:18.613Z,1010.27
2019-05-16T00:39:18.876Z,1010.28
2019-05-16T00:40:19.038Z,1010.29
2019-05-16T00:41:18.590Z,1010.25
2019-05-16T00:42:18.583Z,1010.19
2019-05-16T00:43:18.581Z,1010.21
2019-05-16T00:44:18.935Z,1010.23
2019-05-16T00:45:18.785Z,1010.24
2019-05-16T00:46:20.047Z,1010.19
2019-05-16T00:47:18.521Z,1010.21
2019-05-16T00:48:18.522Z,1010.22
2019-05-16T00:49:18.776Z,1010.17
2019-05-16T00:50:18.599Z,1010.14
2019-05-16T00:51:18.537Z,1010.20
2019-05-16T00:52:18.805Z,1010.18
2019-05-16T00:53:18.460Z,1010.13
2019-05-16T00:54:18.691Z,1010.16
2019-05-16T00:55:18.443Z,1010.13
2019-05-16T00:56:18.800Z,1010.12
2019-05-16T00:57:18.910Z,1010.14
2019-05-16T00:58:19.024Z,1010.14
2019-05-16T00:59:18.677Z,1010.13
2019-05-16T01:00:19.341Z,1010.14
2019-05-16T01:01:18.922Z,1010.12
2019-05-16T01:02:18.390Z,1010.09
2019-05-16T01:03:20.121Z,1010.06
2019-05-16T01:04:18.396Z,1010.11
2019-05-16T01:05:19.116Z,1010.10
2019-05-16T01:06:22.833Z,1010.10
2019-05-16T01:07:18.692Z,1010.17
2019-05-16T01:08:19.083Z,1010.12
2019-05-16T01:09:18.811Z,1010.16
2019-05-16T01:10:18.512Z,1010.14
2019-05-16T01:11:18.851Z,1010.16
2019-05-16T01:12:18.270Z,1010.13
2019-05-16T01:13:19.129Z,1010.15
2019-05-16T01:14:18.249Z,1010.13
2019-05-16T01:15:18.522Z,1010.14
2019-05-16T01:16:18.721Z,1010.12
2019-05-16T01:17:18.357Z,1010.11
2019-05-16T01:18:18.721Z,1010.12
2019-05-16T01:19:18.673Z,1010.07
2019-05-16T01:20:19.223Z,1010.09
2019-05-16T01:21:19.600Z,1010.08
2019-05-16T01:22:18.669Z,1010.09
2019-05-16T01:23:18.415Z,1010.03
2019-05-16T01:24:18.776Z,1010.06
2019-05-16T01:25:19.474Z,1010.02
2019-05-16T01:26:18.712Z,1010.00
2019-05-16T01:27:18.568Z,1009.99
2019-05-16T01:28:18.271Z,1009.97
2019-05-16T01:29:18.859Z,1009.98
2019-05-16T01:30:18.696Z,1009.94
2019-05-16T01:31:19.238Z,1009.90
2019-05-16T01:32:18.978Z,1009.94
2019-05-16T01:33:19.313Z,1009.92
2019-05-16T01:34:19.356Z,1009.95
2019-05-16T01:35:18.864Z,1009.91
2019-05-16T01:36:31.875Z,1009.92
2019-05-16T01:37:18.996Z,1009.91
2019-05-16T01:38:18.228Z,1009.90
2019-05-16T01:39:18.305Z,1009.91
2019-05-16T01:40:18.917Z,1009.96
2019-05-16T01:41:18.237Z,1009.94
2019-05-16T01:42:18.443Z,1009.93
2019-05-16T01:43:18.074Z,1009.95
2019-05-16T01:44:18.415Z,1009.95
2019-05-16T01:45:18.852Z,1009.90
2019-05-16T01:46:18.256Z,1009.86
2019-05-16T01:47:18.359Z,1009.85
2019-05-16T01:48:19.177Z,1009.84
2019-05-16T01:49:18.733Z,1009.83
2019-05-16T01:50:18.197Z,1009.83
2019-05-16T01:51:18.466Z,1009.83
2019-05-16T01:52:17.963Z,1009.82
2019-05-16T01:53:18.161Z,1009.82
2019-05-16T01:54:18.045Z,1009.83
2019-05-16T01:55:18.703Z,1009.78
2019-05-16T01:56:18.014Z,1009.83
2019-05-16T01:57:18.217Z,1009.77
2019-05-16T01:58:19.809Z,1009.78
2019-05-16T01:59:18.188Z,1009.78
2019-05-16T02:01:34.034Z,1009.75
2019-05-16T02:02:33.996Z,1009.77
2019-05-16T02:03:34.024Z,1009.76
2019-05-16T02:04:34.263Z,1009.77
2019-05-16T02:05:33.954Z,1009.77
2019-05-16T02:06:47.336Z,1009.77
2019-05-16T02:07:34.954Z,1009.79
2019-05-16T02:08:33.924Z,1009.79
2019-05-16T02:09:33.974Z,1009.76
2019-05-16T02:10:33.902Z,1009.75
2019-05-16T02:11:34.190Z,1009.76
2019-05-16T02:12:33.882Z,1009.69
2019-05-16T02:13:35.516Z,1009.72
2019-05-16T02:14:33.871Z,1009.70
2019-05-16T02:15:33.923Z,1009.66
2019-05-16T02:16:33.869Z,1009.60
2019-05-16T02:17:33.843Z,1009.63
2019-05-16T02:18:34.105Z,1009.59
2019-05-16T02:19:33.822Z,1009.58
2019-05-16T02:20:33.813Z,1009.59
2019-05-16T02:21:33.822Z,1009.62
2019-05-16T02:22:38.689Z,1009.63
2019-05-16T02:23:33.776Z,1009.60
2019-05-16T02:24:33.753Z,1009.53
2019-05-16T02:25:34.622Z,1009.62
2019-05-16T02:26:34.423Z,1009.58
2019-05-16T02:27:33.773Z,1009.56
2019-05-16T02:28:40.188Z,1009.58
2019-05-16T02:29:34.701Z,1009.60
2019-05-16T02:30:33.693Z,1009.55
2019-05-16T02:31:33.972Z,1009.51
2019-05-16T02:32:33.672Z,1009.55
2019-05-16T02:33:34.182Z,1009.49
2019-05-16T02:34:33.652Z,1009.52
2019-05-16T02:35:33.663Z,1009.52
2019-05-16T02:36:33.632Z,1009.47
2019-05-16T02:37:35.052Z,1009.50
2019-05-16T02:38:33.891Z,1009.45
2019-05-16T02:39:33.643Z,1009.42
2019-05-16T02:40:33.611Z,1009.44
2019-05-16T02:41:33.584Z,1009.46
2019-05-16T02:42:34.431Z,1009.44
2019-05-16T02:43:33.573Z,1009.44
2019-05-16T02:44:33.551Z,1009.42
2019-05-16T02:45:33.591Z,1009.40
2019-05-16T02:46:33.520Z,1009.40
2019-05-16T02:47:35.040Z,1009.43
2019-05-16T02:48:35.314Z,1009.39
2019-05-16T02:49:34.075Z,1009.44
2019-05-16T02:50:33.761Z,1009.36
2019-05-16T02:51:33.961Z,1009.41
2019-05-16T02:52:33.470Z,1009.42
2019-05-16T02:53:33.458Z,1009.40
2019-05-16T02:54:33.468Z,1009.41
2019-05-16T02:55:33.443Z,1009.38
2019-05-16T02:56:33.439Z,1009.44
2019-05-16T02:57:33.461Z,1009.44
2019-05-16T02:58:33.402Z,1009.40
2019-05-16T02:59:33.388Z,1009.43
2019-05-16T03:00:33.387Z,1009.38
2019-05-16T03:01:33.678Z,1009.40
2019-05-16T03:02:33.350Z,1009.38
2019-05-16T03:03:33.388Z,1009.41
2019-05-16T03:04:33.330Z,1009.34
2019-05-16T03:05:33.331Z,1009.41
2019-05-16T03:06:33.309Z,1009.38
2019-05-16T03:07:41.607Z,1009.34
2019-05-16T03:08:34.318Z,1009.36
2019-05-16T03:09:33.318Z,1009.38
2019-05-16T03:10:33.278Z,1009.31
2019-05-16T03:11:33.258Z,1009.38
2019-05-16T03:12:33.265Z,1009.29
2019-05-16T03:13:33.528Z,1009.38
2019-05-16T03:14:34.158Z,1009.31
2019-05-16T03:15:34.178Z,1009.30
2019-05-16T03:16:33.207Z,1009.31
2019-05-16T03:17:33.208Z,1009.30
2019-05-16T03:18:33.203Z,1009.31
2019-05-16T03:19:33.178Z,1009.29
2019-05-16T03:20:33.197Z,1009.31
2019-05-16T03:21:33.157Z,1009.35
2019-05-16T03:22:33.165Z,1009.34
2019-05-16T03:23:33.967Z,1009.33
2019-05-16T03:24:33.127Z,1009.31
2019-05-16T03:25:33.407Z,1009.29
2019-05-16T03:26:33.148Z,1009.29
2019-05-16T03:27:33.094Z,1009.28
2019-05-16T03:28:33.078Z,1009.32
2019-05-16T03:29:33.076Z,1009.28
2019-05-16T03:30:34.958Z,1009.32
2019-05-16T03:31:34.368Z,1009.25
2019-05-16T03:32:34.386Z,1009.23
2019-05-16T03:33:41.144Z,1009.23
2019-05-16T03:34:35.032Z,1009.22
2019-05-16T03:35:34.326Z,1009.20
2019-05-16T03:36:34.351Z,1009.18
2019-05-16T03:37:50.131Z,1009.15
2019-05-16T03:38:34.029Z,1009.16
2019-05-16T03:39:32.968Z,1009.14
2019-05-16T03:40:32.963Z,1009.11
2019-05-16T03:41:32.948Z,1009.11
2019-05-16T03:42:32.935Z,1009.13
2019-05-16T03:43:32.924Z,1009.10
2019-05-16T03:44:33.863Z,1009.14
2019-05-16T03:45:32.917Z,1009.09
2019-05-16T03:46:32.908Z,1009.10
2019-05-16T03:47:32.882Z,1009.14
2019-05-16T03:49:54.645Z,1009.04
2019-05-16T03:50:54.584Z,1009.04
2019-05-16T03:51:54.587Z,1009.03
2019-05-16T03:52:56.100Z,1009.06
2019-05-16T03:53:54.556Z,1009.07
2019-05-16T03:54:54.539Z,1009.08
2019-05-16T03:55:54.976Z,1009.04
2019-05-16T03:56:54.556Z,1009.08
2019-05-16T03:57:54.537Z,1009.03
2019-05-16T03:58:54.503Z,1009.05
2019-05-16T03:59:54.485Z,1009.04
2019-05-16T04:00:55.330Z,1009.00
2019-05-16T04:01:54.505Z,1009.05
2019-05-16T04:02:54.461Z,1009.02
2019-05-16T04:03:54.444Z,1008.99
2019-05-16T04:04:54.442Z,1009.02
2019-05-16T04:05:54.423Z,1009.00
2019-05-16T04:06:54.421Z,1008.97
2019-05-16T04:08:10.187Z,1009.00
2019-05-16T04:08:55.404Z,1008.97
2019-05-16T04:09:54.379Z,1008.99
2019-05-16T04:10:54.374Z,1008.93
2019-05-16T04:11:54.364Z,1008.97
2019-05-16T04:12:54.348Z,1008.95
2019-05-16T04:13:54.383Z,1008.97
2019-05-16T04:14:54.334Z,1009.00
2019-05-16T04:15:54.314Z,1009.01
2019-05-16T04:16:54.313Z,1008.99
2019-05-16T04:17:54.293Z,1009.01
2019-05-16T04:18:54.283Z,1008.98
2019-05-16T04:19:54.309Z,1008.99
2019-05-16T04:20:54.293Z,1008.98
2019-05-16T04:21:54.255Z,1008.95
2019-05-16T04:22:54.252Z,1008.95
2019-05-16T04:23:54.244Z,1008.92
2019-05-16T04:24:54.223Z,1008.91
2019-05-16T04:25:54.552Z,1008.84
2019-05-16T04:26:54.199Z,1008.90
2019-05-16T04:27:54.194Z,1008.87
2019-05-16T04:28:55.155Z,1008.89
2019-05-16T04:29:54.161Z,1008.86
2019-05-16T04:30:54.238Z,1008.87
2019-05-16T04:31:54.194Z,1008.91
2019-05-16T04:32:54.152Z,1008.92
2019-05-16T04:33:54.141Z,1008.93
2019-05-16T04:34:54.200Z,1008.85
2019-05-16T04:35:54.101Z,1008.82
2019-05-16T04:36:54.091Z,1008.84
2019-05-16T04:37:54.419Z,1008.81
2019-05-16T04:38:54.083Z,1008.83
2019-05-16T04:39:54.070Z,1008.83
2019-05-16T04:40:54.062Z,1008.83
2019-05-16T04:41:54.031Z,1008.85
2019-05-16T04:42:54.437Z,1008.85
2019-05-16T04:43:54.051Z,1008.84
2019-05-16T04:44:54.000Z,1008.84
2019-05-16T04:45:53.991Z,1008.85
2019-05-16T04:46:54.012Z,1008.86
2019-05-16T04:47:53.971Z,1008.88
2019-05-16T04:48:53.961Z,1008.81
2019-05-16T04:49:54.268Z,1008.86
2019-05-16T04:50:53.955Z,1008.82
2019-05-16T04:51:53.928Z,1008.85
2019-05-16T04:52:53.939Z,1008.80
2019-05-16T04:53:53.918Z,1008.82
2019-05-16T04:54:53.923Z,1008.80
2019-05-16T04:55:53.929Z,1008.81
2019-05-16T04:56:54.159Z,1008.80
2019-05-16T04:57:53.870Z,1008.84
2019-05-16T04:58:53.851Z,1008.82
2019-05-16T04:59:53.839Z,1008.79
2019-05-16T05:00:53.845Z,1008.76
2019-05-16T05:01:53.972Z,1008.78
2019-05-16T05:02:53.812Z,1008.75
2019-05-16T05:04:08.774Z,1008.77
2019-05-16T05:04:54.788Z,1008.73
2019-05-16T05:05:53.789Z,1008.74
2019-05-16T05:06:55.771Z,1008.80
2019-05-16T05:07:53.918Z,1008.78
2019-05-16T05:08:58.362Z,1008.77
2019-05-16T05:09:54.749Z,1008.76
2019-05-16T05:10:54.124Z,1008.77
2019-05-16T05:11:53.717Z,1008.72
2019-05-16T05:12:53.849Z,1008.71
2019-05-16T05:13:53.737Z,1008.72
2019-05-16T05:14:53.683Z,1008.76
2019-05-16T05:15:53.761Z,1008.72
2019-05-16T05:16:53.683Z,1008.66
2019-05-16T05:17:53.648Z,1008.67
2019-05-16T05:18:53.655Z,1008.66
2019-05-16T05:19:53.723Z,1008.69
2019-05-16T05:20:53.657Z,1008.67
2019-05-16T05:21:53.607Z,1008.66
2019-05-16T05:22:53.606Z,1008.67
2019-05-16T05:23:53.867Z,1008.64
2019-05-16T05:24:53.706Z,1008.66
2019-05-16T05:25:53.617Z,1008.66
2019-05-16T05:26:53.556Z,1008.66
2019-05-16T05:27:53.537Z,1008.67
2019-05-16T05:28:53.526Z,1008.62
2019-05-16T05:29:53.525Z,1008.64
2019-05-16T05:30:53.506Z,1008.64
2019-05-16T05:31:55.449Z,1008.68
2019-05-16T05:32:53.522Z,1008.62
2019-05-16T05:33:53.533Z,1008.65
2019-05-16T05:34:53.895Z,1008.69
2019-05-16T05:35:53.466Z,1008.63
2019-05-16T05:36:53.488Z,1008.61
2019-05-16T05:37:53.545Z,1008.63
2019-05-16T05:39:07.964Z,1008.63
2019-05-16T05:39:54.456Z,1008.62
2019-05-16T05:40:53.818Z,1008.62
2019-05-16T05:41:53.384Z,1008.70
2019-05-16T05:42:53.384Z,1008.62
2019-05-16T05:43:54.554Z,1008.70
2019-05-16T05:44:53.364Z,1008.70
2019-05-16T05:45:54.346Z,1008.64
2019-05-16T05:46:53.600Z,1008.74
2019-05-16T05:47:54.724Z,1008.73
2019-05-16T05:48:54.296Z,1008.70
2019-05-16T05:49:53.458Z,1008.72
2019-05-16T05:50:53.308Z,1008.71
2019-05-16T05:51:53.302Z,1008.70
2019-05-16T05:52:53.291Z,1008.70
2019-05-16T05:53:53.805Z,1008.75
2019-05-16T05:54:53.307Z,1008.72
2019-05-16T05:55:54.125Z,1008.74
2019-05-16T05:56:53.286Z,1008.70
2019-05-16T05:57:53.310Z,1008.71
2019-05-16T05:58:53.297Z,1008.72
2019-05-16T05:59:53.499Z,1008.70
2019-05-16T06:00:53.223Z,1008.64
2019-05-16T06:01:53.275Z,1008.63
2019-05-16T06:02:53.176Z,1008.64
2019-05-16T06:03:53.166Z,1008.60
2019-05-16T06:04:53.153Z,1008.57
2019-05-16T06:05:54.584Z,1008.59
2019-05-16T06:06:53.190Z,1008.61
2019-05-16T06:07:53.173Z,1008.61
2019-05-16T06:08:53.130Z,1008.58
2019-05-16T06:09:56.454Z,1008.63
2019-05-16T06:10:53.089Z,1008.66
2019-05-16T06:11:53.502Z,1008.65
2019-05-16T06:12:53.063Z,1008.62
2019-05-16T06:13:53.768Z,1008.65
2019-05-16T06:14:53.060Z,1008.64
2019-05-16T06:15:53.031Z,1008.66
2019-05-16T06:16:53.027Z,1008.64
2019-05-16T06:17:53.048Z,1008.64
2019-05-16T06:18:53.308Z,1008.64
2019-05-16T06:19:53.769Z,1008.65
2019-05-16T06:20:53.038Z,1008.60
2019-05-16T06:21:52.983Z,1008.60
2019-05-16T06:22:53.374Z,1008.62
2019-05-16T06:23:52.951Z,1008.60
2019-05-16T06:24:52.935Z,1008.59
2019-05-16T06:25:53.041Z,1008.62
2019-05-16T06:26:53.680Z,1008.60
2019-05-16T06:27:52.914Z,1008.60
2019-05-16T06:28:53.746Z,1008.59
2019-05-16T06:29:52.891Z,1008.64
2019-05-16T06:30:52.922Z,1008.65
2019-05-16T06:31:53.718Z,1008.54
2019-05-16T06:32:52.884Z,1008.59
2019-05-16T06:33:52.911Z,1008.55
2019-05-16T06:34:52.863Z,1008.54
2019-05-16T06:35:52.828Z,1008.58
2019-05-16T06:36:52.807Z,1008.55
2019-05-16T06:37:53.253Z,1008.56
2019-05-16T06:38:52.821Z,1008.53
2019-05-16T06:39:52.849Z,1008.55
2019-05-16T06:40:53.067Z,1008.49
2019-05-16T06:41:52.831Z,1008.51
2019-05-16T06:42:53.145Z,1008.43
2019-05-16T06:43:52.789Z,1008.44
2019-05-16T06:44:53.020Z,1008.42
2019-05-16T06:45:52.719Z,1008.38
2019-05-16T06:47:08.637Z,1008.42
2019-05-16T06:47:54.585Z,1008.38
2019-05-16T06:48:53.247Z,1008.37
2019-05-16T06:49:53.349Z,1008.36
2019-05-16T06:50:53.049Z,1008.39
2019-05-16T06:51:53.360Z,1008.36
2019-05-16T06:52:53.997Z,1008.36
2019-05-16T06:53:53.568Z,1008.33
2019-05-16T06:54:53.926Z,1008.39
2019-05-16T06:55:53.349Z,1008.37
2019-05-16T06:56:52.771Z,1008.35
2019-05-16T06:57:57.039Z,1008.38
2019-05-16T06:58:53.419Z,1008.37
2019-05-16T06:59:52.563Z,1008.36
2019-05-16T07:00:52.922Z,1008.36
2019-05-16T07:01:52.659Z,1008.34
2019-05-16T07:02:52.627Z,1008.32
2019-05-16T07:03:52.545Z,1008.36
2019-05-16T07:04:52.607Z,1008.34
2019-05-16T07:05:52.527Z,1008.27
2019-05-16T07:06:58.920Z,1008.31
2019-05-16T07:07:53.616Z,1008.26
2019-05-16T07:08:52.551Z,1008.27
2019-05-16T07:10:00.174Z,1008.31
2019-05-16T07:10:53.454Z,1008.31
2019-05-16T07:11:52.461Z,1008.30
2019-05-16T07:12:52.529Z,1008.29
2019-05-16T07:13:52.469Z,1008.25
2019-05-16T07:14:52.395Z,1008.26
2019-05-16T07:15:52.451Z,1008.25
2019-05-16T07:16:54.560Z,1008.19
2019-05-16T07:17:52.525Z,1008.22
2019-05-16T07:18:52.918Z,1008.21
2019-05-16T07:19:53.215Z,1008.20
2019-05-16T07:20:53.571Z,1008.18
2019-05-16T07:21:52.913Z,1008.25
2019-05-16T07:22:52.439Z,1008.25
2019-05-16T07:23:52.361Z,1008.30
2019-05-16T07:24:52.312Z,1008.29
2019-05-16T07:25:52.339Z,1008.29
2019-05-16T07:26:52.342Z,1008.28
2019-05-16T07:27:52.312Z,1008.34
2019-05-16T07:28:52.761Z,1008.35
2019-05-16T07:29:52.326Z,1008.31
2019-05-16T07:30:52.258Z,1008.36
2019-05-16T07:31:52.610Z,1008.36
2019-05-16T07:32:52.235Z,1008.26
2019-05-16T07:33:52.228Z,1008.26
2019-05-16T07:34:52.193Z,1008.19
2019-05-16T07:35:52.997Z,1008.21
2019-05-16T07:36:53.808Z,1008.13
2019-05-16T07:37:53.042Z,1008.15
2019-05-16T07:38:52.209Z,1008.13
2019-05-16T07:39:52.147Z,1008.10
2019-05-16T07:40:52.643Z,1008.11
2019-05-16T07:41:52.645Z,1008.05
2019-05-16T07:42:53.278Z,1007.99
2019-05-16T07:43:52.446Z,1008.01
2019-05-16T07:44:52.237Z,1008.04
2019-05-16T07:45:53.263Z,1008.04
2019-05-16T07:46:52.234Z,1008.00
2019-05-16T07:47:53.184Z,1007.99
2019-05-16T07:48:52.863Z,1007.96
2019-05-16T07:49:52.100Z,1007.95
2019-05-16T07:50:52.044Z,1007.97
2019-05-16T07:51:52.020Z,1007.93
2019-05-16T07:52:51.993Z,1007.91
2019-05-16T07:53:52.026Z,1007.90
2019-05-16T07:54:51.994Z,1007.91
2019-05-16T07:55:52.062Z,1007.86
2019-05-16T07:56:59.575Z,1007.91
2019-05-16T07:57:53.385Z,1007.78
2019-05-16T07:58:51.955Z,1007.85
2019-05-16T07:59:52.019Z,1007.86
2019-05-16T08:01:01.926Z,1007.81
2019-05-16T08:01:54.331Z,1007.81
2019-05-16T08:02:52.887Z,1007.85
2019-05-16T08:03:53.409Z,1007.84
2019-05-16T08:04:52.642Z,1007.82
2019-05-16T08:05:52.826Z,1007.83
2019-05-16T08:06:51.913Z,1007.82
2019-05-16T08:07:51.934Z,1007.85
2019-05-16T08:08:51.837Z,1007.84
2019-05-16T08:09:51.830Z,1007.82
2019-05-16T08:10:51.792Z,1007.79
2019-05-16T08:11:51.811Z,1007.83
2019-05-16T08:12:52.212Z,1007.81
2019-05-16T08:13:51.829Z,1007.82
2019-05-16T08:14:51.826Z,1007.78
2019-05-16T08:15:51.836Z,1007.79
2019-05-16T08:16:51.753Z,1007.78
2019-05-16T08:17:53.840Z,1007.81
2019-05-16T08:18:51.776Z,1007.76
2019-05-16T08:19:53.441Z,1007.77
2019-05-16T08:20:52.808Z,1007.78
2019-05-16T08:21:51.679Z,1007.73
2019-05-16T08:22:51.700Z,1007.75
2019-05-16T08:23:51.658Z,1007.73
2019-05-16T08:24:51.664Z,1007.75
2019-05-16T08:25:52.065Z,1007.78
2019-05-16T08:26:51.853Z,1007.79
2019-05-16T08:27:52.144Z,1007.80
2019-05-16T08:28:51.601Z,1007.81
2019-05-16T08:29:51.653Z,1007.77
2019-05-16T08:30:53.084Z,1007.78
2019-05-16T08:31:53.199Z,1007.79
2019-05-16T08:32:52.695Z,1007.76
2019-05-16T08:33:53.713Z,1007.76
2019-05-16T08:34:51.779Z,1007.77
2019-05-16T08:35:51.946Z,1007.73
2019-05-16T08:36:52.019Z,1007.72
2019-05-16T08:37:51.755Z,1007.72
2019-05-16T08:38:52.091Z,1007.72
2019-05-16T08:39:52.150Z,1007.73
2019-05-16T08:41:08.019Z,1007.72
2019-05-16T08:41:52.449Z,1007.70
2019-05-16T08:43:53.538Z,1007.62
2019-05-16T08:44:53.579Z,1007.64
2019-05-16T08:45:51.905Z,1007.68
2019-05-16T08:49:52.478Z,1007.68
2019-05-16T08:50:10.992Z,1007.68
2019-05-16T08:50:54.707Z,1007.69
2019-05-16T08:51:53.031Z,1007.67
2019-05-16T08:52:53.250Z,1007.66
2019-05-16T08:53:51.370Z,1007.67
2019-05-16T08:54:51.410Z,1007.66
2019-05-16T08:55:53.805Z,1007.65
2019-05-16T08:56:51.318Z,1007.62
2019-05-16T08:57:53.099Z,1007.65
2019-05-16T08:58:54.356Z,1007.60
2019-05-16T08:59:52.466Z,1007.67
2019-05-16T09:00:55.272Z,1007.64
2019-05-16T09:01:57.668Z,1007.66
2019-05-16T09:02:52.711Z,1007.63
2019-05-16T09:03:52.310Z,1007.60
2019-05-16T09:04:53.462Z,1007.57
2019-05-16T09:05:53.466Z,1007.52
2019-05-16T09:06:52.748Z,1007.51
2019-05-16T09:08:00.481Z,1007.53
2019-05-16T09:08:52.172Z,1007.46
2019-05-16T09:09:52.457Z,1007.48
2019-05-16T09:10:31.815Z,1007.67
2019-05-16T09:10:41.043Z,1007.68
2019-05-16T09:11:01.757Z,1007.42
2019-05-16T09:11:53.015Z,1007.43
2019-05-16T09:12:51.178Z,1007.35
2019-05-16T09:13:51.177Z,1007.33
2019-05-16T09:14:51.980Z,1007.34
2019-05-16T09:15:51.725Z,1007.34
2019-05-16T09:16:51.108Z,1007.35
2019-05-16T09:17:51.475Z,1007.36
2019-05-16T09:18:30.615Z,1007.67
2019-05-16T09:18:51.709Z,1007.35
2019-05-16T09:19:51.116Z,1007.28
2019-05-16T09:20:51.583Z,1007.29
2019-05-16T09:21:51.580Z,1007.31
2019-05-16T09:22:51.017Z,1007.26
2019-05-16T09:23:51.007Z,1007.26
2019-05-16T09:24:51.446Z,1007.27
2019-05-16T09:25:51.108Z,1007.29
2019-05-16T09:26:51.012Z,1007.35
2019-05-16T09:27:50.994Z,1007.27
2019-05-16T09:28:50.965Z,1007.33
2019-05-16T09:29:50.984Z,1007.35
2019-05-16T09:30:50.957Z,1007.36
2019-05-16T09:32:07.824Z,1007.35
2019-05-16T09:32:51.920Z,1007.27
2019-05-16T09:33:50.956Z,1007.25
2019-05-16T09:34:51.556Z,1007.22
2019-05-16T09:35:50.876Z,1007.20
2019-05-16T09:36:51.103Z,1007.11
2019-05-16T09:37:50.956Z,1007.14
2019-05-16T09:38:51.256Z,1007.11
2019-05-16T09:39:51.335Z,1007.12
2019-05-16T09:40:50.837Z,1007.15
2019-05-16T09:41:55.521Z,1007.10
2019-05-16T09:42:51.865Z,1007.13
2019-05-16T09:43:53.237Z,1007.15
2019-05-16T09:44:50.777Z,1007.14
2019-05-16T09:45:50.786Z,1007.10
2019-05-16T09:46:50.817Z,1007.09
2019-05-16T09:47:50.756Z,1007.08
2019-05-16T09:49:11.807Z,1007.03
2019-05-16T09:49:52.344Z,1007.09
2019-05-16T09:50:50.719Z,1007.03
2019-05-16T09:51:51.793Z,1007.02
2019-05-16T09:52:50.695Z,1007.03
2019-05-16T09:53:50.722Z,1007.09
2019-05-16T09:54:50.770Z,1007.03
2019-05-16T09:55:51.832Z,1007.07
2019-05-16T09:56:50.705Z,1007.04
2019-05-16T09:57:50.648Z,1007.01
2019-05-16T09:58:50.641Z,1007.05
2019-05-16T09:59:51.143Z,1007.02
2019-05-16T10:00:51.379Z,1007.06
2019-05-16T10:01:51.896Z,1007.08
2019-05-16T10:02:50.922Z,1007.04
2019-05-16T10:03:50.874Z,1007.03
2019-05-16T10:04:51.051Z,1007.00
2019-05-16T10:05:50.610Z,1007.02
2019-05-16T10:06:50.604Z,1006.99
2019-05-16T10:07:50.558Z,1006.97
2019-05-16T10:08:50.674Z,1006.94
2019-05-16T10:09:51.307Z,1006.97
2019-05-16T10:10:50.693Z,1006.93
2019-05-16T10:12:05.523Z,1006.90
2019-05-16T10:12:51.544Z,1006.93
2019-05-16T10:13:50.464Z,1006.90
2019-05-16T10:14:50.456Z,1006.87
2019-05-16T10:15:50.443Z,1006.85
2019-05-16T10:16:51.091Z,1006.85
2019-05-16T10:17:50.424Z,1006.81
2019-05-16T10:18:53.277Z,1006.82
2019-05-16T10:19:51.598Z,1006.76
2019-05-16T10:20:51.560Z,1006.75
2019-05-16T10:21:51.379Z,1006.72
2019-05-16T10:22:50.786Z,1006.68
2019-05-16T10:23:50.380Z,1006.73
2019-05-16T10:24:51.655Z,1006.72
2019-05-16T10:25:50.442Z,1006.70
2019-05-16T10:26:53.793Z,1006.62
2019-05-16T10:27:50.333Z,1006.61
2019-05-16T10:28:50.652Z,1006.59
2019-05-16T10:29:50.912Z,1006.60
2019-05-16T10:30:50.436Z,1006.60
2019-05-16T10:31:53.309Z,1006.61
2019-05-16T10:32:50.259Z,1006.62
2019-05-16T10:33:50.991Z,1006.55
2019-05-16T10:34:50.310Z,1006.61
2019-05-16T10:35:51.032Z,1006.65
2019-05-16T10:36:50.262Z,1006.56
2019-05-16T10:37:50.983Z,1006.57
2019-05-16T10:38:50.382Z,1006.59
2019-05-16T10:39:50.351Z,1006.57
2019-05-16T10:40:50.797Z,1006.55
2019-05-16T10:41:51.028Z,1006.52
2019-05-16T10:42:50.240Z,1006.56
2019-05-16T10:43:50.189Z,1006.51
2019-05-16T10:44:50.182Z,1006.51
2019-05-16T10:45:50.130Z,1006.49
2019-05-16T10:46:50.478Z,1006.49
2019-05-16T10:47:50.121Z,1006.48
2019-05-16T10:48:51.351Z,1006.47
2019-05-16T10:49:50.089Z,1006.48
2019-05-16T10:50:51.640Z,1006.47
2019-05-16T10:51:50.209Z,1006.48
2019-05-16T10:53:12.907Z,1006.41
2019-05-16T10:54:05.652Z,1006.34
2019-05-16T10:54:58.143Z,1006.40
2019-05-16T10:55:51.036Z,1006.37
2019-05-16T10:56:50.031Z,1006.34
2019-05-16T10:57:50.634Z,1006.36
2019-05-16T10:59:21.596Z,1006.40
2019-05-16T11:00:05.347Z,1006.33
2019-05-16T11:01:15.683Z,1006.33
2019-05-16T11:01:51.550Z,1006.32
2019-05-16T11:02:50.254Z,1006.34
2019-05-16T11:03:51.242Z,1006.28
2019-05-16T11:05:00.190Z,1006.28
2019-05-16T11:06:05.315Z,1006.27
2019-05-16T11:06:52.358Z,1006.30
2019-05-16T11:07:53.334Z,1006.28
2019-05-16T11:08:50.851Z,1006.31
2019-05-16T11:09:58.504Z,1006.28
2019-05-16T11:10:51.532Z,1006.31
2019-05-16T11:11:49.890Z,1006.28
2019-05-16T11:12:55.637Z,1006.24
2019-05-16T11:13:51.708Z,1006.25
2019-05-16T11:14:49.828Z,1006.24
2019-05-16T11:15:50.842Z,1006.27
2019-05-16T11:16:49.799Z,1006.24
2019-05-16T11:17:50.210Z,1006.23
2019-05-16T11:18:49.783Z,1006.27
2019-05-16T11:19:49.784Z,1006.22
2019-05-16T11:20:49.885Z,1006.18
2019-05-16T11:21:50.438Z,1006.25
2019-05-16T11:22:49.796Z,1006.21
2019-05-16T11:23:49.780Z,1006.20
2019-05-16T11:24:49.731Z,1006.21
2019-05-16T11:25:50.211Z,1006.21
2019-05-16T11:26:49.760Z,1006.22
2019-05-16T11:27:49.831Z,1006.23
2019-05-16T11:28:51.094Z,1006.24
2019-05-16T11:29:50.497Z,1006.24
2019-05-16T11:30:51.479Z,1006.23
2019-05-16T11:31:51.481Z,1006.25
2019-05-16T11:32:51.083Z,1006.23
2019-05-16T11:33:51.294Z,1006.25
2019-05-16T11:34:50.030Z,1006.19
2019-05-16T11:35:50.643Z,1006.19
2019-05-16T11:36:49.781Z,1006.19
2019-05-16T11:37:49.586Z,1006.15
2019-05-16T11:38:49.568Z,1006.17
2019-05-16T11:39:50.012Z,1006.17
2019-05-16T11:40:50.448Z,1006.18
2019-05-16T11:41:49.603Z,1006.10
2019-05-16T11:43:05.567Z,1006.11
2019-05-16T11:43:50.582Z,1006.11
2019-05-16T11:44:49.512Z,1006.07
2019-05-16T11:45:49.486Z,1006.11
2019-05-16T11:46:49.507Z,1006.06
2019-05-16T11:47:49.539Z,1006.08
2019-05-16T11:48:49.516Z,1006.05
2019-05-16T11:49:50.383Z,1006.04
2019-05-16T11:50:49.844Z,1005.98
2019-05-16T11:51:49.964Z,1006.04
2019-05-16T11:52:49.423Z,1006.07
2019-05-16T11:53:49.436Z,1006.03
2019-05-16T11:54:49.403Z,1006.06
2019-05-16T11:55:55.582Z,1006.07
2019-05-16T11:56:50.375Z,1006.05
2019-05-16T11:57:49.883Z,1006.06
2019-05-16T11:58:49.355Z,1006.00
2019-05-16T11:59:49.447Z,1006.03
2019-05-16T12:00:49.389Z,1006.04
2019-05-16T12:01:50.340Z,1006.04
2019-05-16T12:02:49.315Z,1006.06
2019-05-16T12:03:49.625Z,1006.08
2019-05-16T12:04:49.298Z,1006.02
2019-05-16T12:05:49.810Z,1006.07
2019-05-16T12:06:50.467Z,1006.03
2019-05-16T12:07:49.553Z,1005.98